createdAt,value
2018-11-10T00:01:40.601Z,52.00
2018-11-10T00:04:07.680Z,49.77
2018-11-10T00:06:34.728Z,54.63
2018-11-10T00:09:01.839Z,53.40
2018-11-10T00:11:28.867Z,53.10
2018-11-10T00:13:56.260Z,54.70
2018-11-10T00:16:23.381Z,52.73
2018-11-10T00:18:50.428Z,51.93
2018-11-10T00:21:17.813Z,54.07
2018-11-10T00:23:44.866Z,54.03
2018-11-10T00:26:12.127Z,53.67
2018-11-10T00:28:39.204Z,51.93
2018-11-10T00:31:06.319Z,52.30
2018-11-10T00:33:33.368Z,53.17
2018-11-10T00:36:00.608Z,52.17
2018-11-10T00:38:27.736Z,52.30
2018-11-10T00:40:54.844Z,55.83
2018-11-10T00:43:22.337Z,55.37
2018-11-10T00:45:49.418Z,50.77
2018-11-10T00:48:16.447Z,53.37
2018-11-10T00:50:43.815Z,54.83
2018-11-10T00:53:11.055Z,56.53
2018-11-10T00:55:38.106Z,52.77
2018-11-10T00:58:05.188Z,54.53
2018-11-10T01:00:32.307Z,55.80
2018-11-10T01:02:59.553Z,54.97
2018-11-10T01:05:26.703Z,56.63
2018-11-10T01:07:53.779Z,55.73
2018-11-10T01:10:20.823Z,57.33
2018-11-10T01:12:48.195Z,54.03
2018-11-10T01:15:15.871Z,53.07
2018-11-10T01:17:43.522Z,57.57
2018-11-10T01:20:11.295Z,52.33
2018-11-10T01:22:38.423Z,55.57
2018-11-10T01:25:06.272Z,55.97
2018-11-10T01:27:33.761Z,54.83
2018-11-10T01:30:00.800Z,54.60
2018-11-10T01:32:27.863Z,57.23
2018-11-10T01:34:54.990Z,57.07
2018-11-10T01:37:22.107Z,55.50
2018-11-10T01:39:49.155Z,55.60
2018-11-10T01:42:16.219Z,54.90
2018-11-10T01:44:43.273Z,57.97
2018-11-10T01:47:10.387Z,55.97
2018-11-10T01:49:37.456Z,56.20
2018-11-10T01:52:04.583Z,57.57
2018-11-10T01:54:31.635Z,54.60
2018-11-10T01:56:59.029Z,56.23
2018-11-10T01:59:26.051Z,56.03
2018-11-10T02:01:53.090Z,58.00
2018-11-10T02:04:20.595Z,56.47
2018-11-10T02:06:47.678Z,54.80
2018-11-10T02:09:14.778Z,55.13
2018-11-10T02:11:42.004Z,55.30
2018-11-10T02:14:09.040Z,56.70
2018-11-10T02:16:36.111Z,56.00
2018-11-10T02:19:03.592Z,56.13
2018-11-10T02:21:30.611Z,55.83
2018-11-10T02:23:57.767Z,54.17
2018-11-10T02:26:25.138Z,58.10
2018-11-10T02:28:52.192Z,53.87
2018-11-10T02:31:19.220Z,54.47
2018-11-10T02:33:46.447Z,55.30
2018-11-10T02:36:13.575Z,55.33
2018-11-10T02:38:40.653Z,55.00
2018-11-10T02:41:07.868Z,53.90
2018-11-10T02:43:34.956Z,56.60
2018-11-10T02:46:01.980Z,52.07
2018-11-10T02:48:29.356Z,55.60
2018-11-10T02:50:56.380Z,55.07
2018-11-10T02:53:23.500Z,54.90
2018-11-10T02:55:50.841Z,55.53
2018-11-10T02:58:17.884Z,55.87
2018-11-10T03:00:45.134Z,52.40
2018-11-10T03:03:12.451Z,54.07
2018-11-10T03:05:39.492Z,55.27
2018-11-10T03:08:06.552Z,52.67
2018-11-10T03:10:33.637Z,53.53
2018-11-10T03:13:00.663Z,55.00
2018-11-10T03:15:27.699Z,55.07
2018-11-10T03:17:54.995Z,55.83
2018-11-10T03:20:22.039Z,54.73
2018-11-10T03:22:49.092Z,55.80
2018-11-10T03:25:16.154Z,53.13
2018-11-10T03:27:43.242Z,52.80
2018-11-10T03:30:10.324Z,56.00
2018-11-10T03:32:37.651Z,59.03
2018-11-10T03:35:04.957Z,54.43
2018-11-10T03:37:32.047Z,55.33
2018-11-10T03:39:59.320Z,54.80
2018-11-10T03:42:26.459Z,55.67
2018-11-10T03:44:53.483Z,56.03
2018-11-10T03:47:20.535Z,54.47
2018-11-10T03:49:47.700Z,55.23
2018-11-10T03:52:14.738Z,51.87
2018-11-10T03:54:42.024Z,49.90
2018-11-10T03:57:09.067Z,49.13
2018-11-10T03:59:36.195Z,49.37
2018-11-10T04:02:03.997Z,53.47
2018-11-10T04:04:31.220Z,49.70
2018-11-10T04:06:58.435Z,49.70
2018-11-10T04:09:25.491Z,50.10
2018-11-10T04:11:52.544Z,52.20
2018-11-10T04:14:19.619Z,50.60
2018-11-10T04:16:46.875Z,49.50
2018-11-10T04:19:13.916Z,46.60
2018-11-10T04:21:40.983Z,46.20
2018-11-10T04:24:08.351Z,48.40
2018-11-10T04:26:35.403Z,49.00
2018-11-10T04:29:02.445Z,49.40
2018-11-10T04:31:29.564Z,45.73
2018-11-10T04:33:56.794Z,46.60
2018-11-10T04:36:24.214Z,46.50
2018-11-10T04:38:51.571Z,44.90
2018-11-10T04:41:18.639Z,45.93
2018-11-10T04:43:45.737Z,45.47
2018-11-10T04:46:12.918Z,42.33
2018-11-10T04:48:40.068Z,44.67
2018-11-10T04:51:07.115Z,44.87
2018-11-10T04:53:34.472Z,44.60
2018-11-10T04:56:01.671Z,46.80
2018-11-10T04:58:28.973Z,44.53
2018-11-10T05:00:56.103Z,45.73
2018-11-10T05:03:23.138Z,46.53
2018-11-10T05:05:50.175Z,44.63
2018-11-10T05:08:17.254Z,43.30
2018-11-10T05:10:44.288Z,44.03
2018-11-10T05:13:11.344Z,44.43
2018-11-10T05:15:38.418Z,44.40
2018-11-10T05:18:05.447Z,40.90
2018-11-10T05:20:32.490Z,43.17
2018-11-10T05:22:59.580Z,43.67
2018-11-10T05:25:26.608Z,42.97
2018-11-10T05:27:53.639Z,42.90
2018-11-10T05:30:20.907Z,41.97
2018-11-10T05:32:47.951Z,42.70
2018-11-10T05:35:14.983Z,39.90
2018-11-10T05:37:42.143Z,41.73
2018-11-10T05:40:10.035Z,40.13
2018-11-10T05:42:37.147Z,40.13
2018-11-10T05:45:04.367Z,39.70
2018-11-10T05:47:31.406Z,38.23
2018-11-10T05:49:58.435Z,39.87
2018-11-10T05:52:25.806Z,40.67
2018-11-10T05:54:52.827Z,39.70
2018-11-10T05:57:20.000Z,39.80
2018-11-10T05:59:46.972Z,38.10
2018-11-10T06:02:14.007Z,40.67
2018-11-10T06:04:41.048Z,37.30
2018-11-10T06:07:08.116Z,40.60
2018-11-10T06:09:35.228Z,38.17
2018-11-10T06:12:02.319Z,37.27
2018-11-10T06:14:29.607Z,37.70
2018-11-10T06:16:56.657Z,37.47
2018-11-10T06:19:23.736Z,38.20
2018-11-10T06:21:50.767Z,37.23
2018-11-10T06:24:17.805Z,37.07
2018-11-10T06:26:44.911Z,35.67
2018-11-10T06:29:12.073Z,34.53
2018-11-10T06:31:39.095Z,34.90
2018-11-10T06:34:06.123Z,33.03
2018-11-10T06:36:33.160Z,36.50
2018-11-10T06:39:00.191Z,36.17
2018-11-10T06:41:27.353Z,34.57
2018-11-10T06:43:54.376Z,34.37
2018-11-10T06:46:21.414Z,34.73
2018-11-10T06:48:48.446Z,36.23
2018-11-10T06:51:15.495Z,37.00
2018-11-10T06:53:42.537Z,37.47
2018-11-10T06:56:09.575Z,37.80
2018-11-10T06:58:36.976Z,37.70
2018-11-10T07:01:04.447Z,32.30
2018-11-10T07:03:31.568Z,33.73
2018-11-10T07:05:58.585Z,33.37
2018-11-10T07:08:25.607Z,33.97
2018-11-10T07:10:52.692Z,36.90
2018-11-10T07:13:19.777Z,33.10
2018-11-10T07:15:46.820Z,37.10
2018-11-10T07:18:14.015Z,44.10
2018-11-10T07:20:40.913Z,37.67
2018-11-10T07:23:07.960Z,36.33
2018-11-10T07:25:34.996Z,36.50
2018-11-10T07:28:02.456Z,38.50
2018-11-10T07:30:29.487Z,36.20
2018-11-10T07:32:56.520Z,32.80
2018-11-10T07:35:23.559Z,36.37
2018-11-10T07:37:50.572Z,37.40
2018-11-10T07:40:17.608Z,38.90
2018-11-10T07:42:44.915Z,52.33
2018-11-10T07:45:13.363Z,38.27
2018-11-10T07:47:40.932Z,36.50
2018-11-10T07:50:08.527Z,35.97
2018-11-10T07:52:35.571Z,37.63
2018-11-10T07:55:02.603Z,37.33
2018-11-10T07:57:29.707Z,37.60
2018-11-10T07:59:56.752Z,37.57
2018-11-10T08:02:23.855Z,34.87
2018-11-10T08:04:50.900Z,34.27
2018-11-10T08:07:17.937Z,36.40
2018-11-10T08:09:44.981Z,36.97
2018-11-10T08:12:12.020Z,35.57
2018-11-10T08:14:39.115Z,37.60
2018-11-10T08:17:06.148Z,33.90
2018-11-10T08:19:33.310Z,35.40
2018-11-10T08:22:00.348Z,35.90
2018-11-10T08:24:27.380Z,35.80
2018-11-10T08:26:54.491Z,31.40
2018-11-10T08:29:21.531Z,36.53
2018-11-10T08:31:48.555Z,35.07
2018-11-10T08:34:15.716Z,34.83
2018-11-10T08:36:42.805Z,36.57
2018-11-10T08:39:10.514Z,37.13
2018-11-10T08:41:37.611Z,35.40
2018-11-10T08:44:04.732Z,32.43
2018-11-10T08:46:31.757Z,34.60
2018-11-10T08:48:59.155Z,34.17
2018-11-10T08:51:26.214Z,33.37
2018-11-10T08:53:53.259Z,36.10
2018-11-10T08:56:20.605Z,33.53
2018-11-10T08:58:47.664Z,37.40
2018-11-10T09:01:14.723Z,35.00
2018-11-10T09:03:41.772Z,35.43
2018-11-10T09:06:08.824Z,35.60
2018-11-10T09:08:35.892Z,38.27
2018-11-10T09:11:03.101Z,35.67
2018-11-10T09:13:30.152Z,34.07
2018-11-10T09:15:57.251Z,36.07
2018-11-10T09:18:24.655Z,33.50
2018-11-10T09:20:51.736Z,34.87
2018-11-10T09:23:18.786Z,32.97
2018-11-10T09:25:45.944Z,35.63
2018-11-10T09:28:12.975Z,32.80
2018-11-10T09:30:40.077Z,35.47
2018-11-10T09:33:07.396Z,31.60
2018-11-10T09:35:34.507Z,35.77
2018-11-10T09:38:01.537Z,31.80
2018-11-10T09:40:28.632Z,33.80
2018-11-10T09:42:55.672Z,35.17
2018-11-10T09:45:22.735Z,32.50
2018-11-10T09:47:49.841Z,35.43
2018-11-10T09:50:18.535Z,34.00
2018-11-10T09:52:45.847Z,31.80
2018-11-10T09:55:13.848Z,34.97
2018-11-10T09:57:40.970Z,33.40
2018-11-10T10:00:12.988Z,34.50
2018-11-10T10:02:40.536Z,35.17
2018-11-10T10:05:07.792Z,32.63
2018-11-10T10:07:35.052Z,33.27
2018-11-10T10:10:02.234Z,33.17
2018-11-10T10:12:29.271Z,34.53
2018-11-10T10:14:56.324Z,33.07
2018-11-10T10:17:23.735Z,30.00
2018-11-10T10:19:50.782Z,31.80
2018-11-10T10:22:17.835Z,33.53
2018-11-10T10:24:44.888Z,32.30
2018-11-10T10:27:11.952Z,31.13
2018-11-10T10:29:39.187Z,32.37
2018-11-10T10:32:06.273Z,31.07
2018-11-10T10:34:33.384Z,31.67
2018-11-10T10:37:00.438Z,29.33
2018-11-10T10:39:27.567Z,28.90
2018-11-10T10:41:54.572Z,30.07
2018-11-10T10:44:21.630Z,32.80
2018-11-10T10:46:48.711Z,30.67
2018-11-10T10:49:15.870Z,33.23
2018-11-10T10:51:42.807Z,31.83
2018-11-10T10:54:10.004Z,31.80
2018-11-10T10:56:37.227Z,33.20
2018-11-10T10:59:04.305Z,30.50
2018-11-10T11:01:37.572Z,33.27
2018-11-10T11:04:10.439Z,32.03
2018-11-10T11:06:37.533Z,31.97
2018-11-10T11:09:05.352Z,30.53
2018-11-10T11:11:32.320Z,31.97
2018-11-10T11:13:59.396Z,30.47
2018-11-10T11:16:26.452Z,32.23
2018-11-10T11:18:53.605Z,31.57
2018-11-10T11:21:21.008Z,30.70
2018-11-10T11:23:48.051Z,30.30
2018-11-10T11:26:15.119Z,30.80
2018-11-10T11:28:42.224Z,32.20
2018-11-10T11:31:09.328Z,30.83
2018-11-10T11:33:36.403Z,29.90
2018-11-10T11:36:03.567Z,31.00
2018-11-10T11:38:30.618Z,28.20
2018-11-10T11:40:57.662Z,31.50
2018-11-10T11:43:25.052Z,29.37
2018-11-10T11:45:52.140Z,29.97
2018-11-10T11:48:19.180Z,29.00
2018-11-10T11:50:46.263Z,29.37
2018-11-10T11:53:13.312Z,26.80
2018-11-10T11:55:40.369Z,29.03
2018-11-10T11:58:07.611Z,28.37
2018-11-10T12:00:34.663Z,28.37
2018-11-10T12:03:01.723Z,28.00
2018-11-10T12:05:28.803Z,27.70
2018-11-10T12:07:55.857Z,28.60
2018-11-10T12:10:22.908Z,28.00
2018-11-10T12:12:49.989Z,28.87
2018-11-10T12:15:17.057Z,28.90
2018-11-10T12:17:44.100Z,28.50
2018-11-10T12:20:12.717Z,27.93
2018-11-10T12:22:39.991Z,28.40
2018-11-10T12:25:07.765Z,29.50
2018-11-10T12:27:34.871Z,27.67
2018-11-10T12:30:01.999Z,27.47
2018-11-10T12:32:29.103Z,28.90
2018-11-10T12:34:56.193Z,27.20
2018-11-10T12:37:23.241Z,31.23
2018-11-10T12:39:50.399Z,27.13
2018-11-10T12:42:17.786Z,28.57
2018-11-10T12:44:45.075Z,27.97
2018-11-10T12:47:12.115Z,28.67
2018-11-10T12:49:39.207Z,27.60
2018-11-10T12:52:06.309Z,27.00
2018-11-10T12:54:33.329Z,26.87
2018-11-10T12:57:00.428Z,28.93
2018-11-10T12:59:27.490Z,30.33
2018-11-10T13:01:54.575Z,27.53
2018-11-10T13:04:21.929Z,25.67
2018-11-10T13:06:48.988Z,30.47
2018-11-10T13:09:16.068Z,26.90
2018-11-10T13:11:43.503Z,28.47
2018-11-10T13:14:10.913Z,29.07
2018-11-10T13:16:38.422Z,27.10
2018-11-10T13:19:05.764Z,28.10
2018-11-10T13:21:32.804Z,27.77
2018-11-10T13:23:59.849Z,28.63
2018-11-10T13:26:26.904Z,26.87
2018-11-10T13:28:53.947Z,28.97
2018-11-10T13:31:21.185Z,29.23
2018-11-10T13:33:48.135Z,28.10
2018-11-10T13:36:15.171Z,27.17
2018-11-10T13:38:42.247Z,27.00
2018-11-10T13:41:09.515Z,27.50
2018-11-10T13:43:36.644Z,27.63
2018-11-10T13:46:03.635Z,27.57
2018-11-10T13:48:30.941Z,27.23
2018-11-10T13:50:58.157Z,25.83
2018-11-10T13:53:25.057Z,26.57
2018-11-10T13:55:52.527Z,24.50
2018-11-10T13:58:19.656Z,25.70
2018-11-10T14:00:46.726Z,28.03
2018-11-10T14:03:13.771Z,29.60
2018-11-10T14:05:41.717Z,26.03
2018-11-10T14:08:08.626Z,25.93
2018-11-10T14:10:35.811Z,27.13
2018-11-10T14:13:03.212Z,25.20
2018-11-10T14:15:30.280Z,28.27
2018-11-10T14:17:57.676Z,26.57
2018-11-10T14:20:24.880Z,25.93
2018-11-10T14:22:51.889Z,26.47
2018-11-10T14:25:19.212Z,27.03
2018-11-10T14:27:46.296Z,27.47
2018-11-10T14:30:14.573Z,26.23
2018-11-10T14:32:42.518Z,31.10
2018-11-10T14:35:10.347Z,26.30
2018-11-10T14:37:37.391Z,25.23
2018-11-10T14:40:06.318Z,26.70
2018-11-10T14:42:33.372Z,27.37
2018-11-10T14:45:00.419Z,26.07
2018-11-10T14:47:27.515Z,24.90
2018-11-10T14:49:55.794Z,27.50
2018-11-10T14:52:22.960Z,26.17
2018-11-10T14:54:50.175Z,25.63
2018-11-10T14:57:17.279Z,25.37
2018-11-10T14:59:44.393Z,26.20
2018-11-10T15:02:11.810Z,28.33
2018-11-10T15:04:38.868Z,29.03
2018-11-10T15:07:05.911Z,29.57
2018-11-10T15:09:33.040Z,31.17
2018-11-10T15:12:00.393Z,28.93
2018-11-10T15:14:27.227Z,29.37
2018-11-10T15:16:54.598Z,30.60
2018-11-10T15:19:21.632Z,29.37
2018-11-10T15:21:48.806Z,30.33
2018-11-10T15:24:16.162Z,29.10
2018-11-10T15:26:43.236Z,33.20
2018-11-10T15:29:10.294Z,35.47
2018-11-10T15:31:37.646Z,34.53
2018-11-10T15:34:04.839Z,33.30
2018-11-10T15:36:31.975Z,34.60
2018-11-10T15:38:59.088Z,31.83
2018-11-10T15:41:26.206Z,32.00
2018-11-10T15:43:53.240Z,31.03
2018-11-10T15:46:20.574Z,30.97
2018-11-10T15:48:47.639Z,32.33
2018-11-10T15:51:14.780Z,33.00
2018-11-10T15:53:42.289Z,31.37
2018-11-10T15:56:09.323Z,36.23
2018-11-10T15:58:36.411Z,32.67
2018-11-10T16:01:04.932Z,35.20
2018-11-10T16:03:32.087Z,33.60
2018-11-10T16:05:59.107Z,32.00
2018-11-10T16:08:26.492Z,31.87
2018-11-10T16:10:53.559Z,30.50
2018-11-10T16:13:20.591Z,33.63
2018-11-10T16:15:47.896Z,34.53
2018-11-10T16:18:15.071Z,34.93
2018-11-10T16:20:42.200Z,33.50
2018-11-10T16:23:09.605Z,36.77
2018-11-10T16:25:36.649Z,34.73
2018-11-10T16:28:04.087Z,32.60
2018-11-10T16:30:31.187Z,31.97
2018-11-10T16:32:58.271Z,34.20
2018-11-10T16:35:25.357Z,33.30
2018-11-10T16:37:52.424Z,33.27
2018-11-10T16:40:19.979Z,35.13
2018-11-10T16:42:47.648Z,34.70
2018-11-10T16:45:15.687Z,38.43
2018-11-10T16:47:42.731Z,37.00
2018-11-10T16:50:10.332Z,37.20
2018-11-10T16:52:37.616Z,37.27
2018-11-10T16:55:04.811Z,37.17
2018-11-10T16:57:31.848Z,37.03
2018-11-10T16:59:59.208Z,37.83
2018-11-10T17:02:26.260Z,38.07
2018-11-10T17:04:53.412Z,38.10
2018-11-10T17:07:20.772Z,37.10
2018-11-10T17:09:47.881Z,37.77
2018-11-10T17:12:14.965Z,36.90
2018-11-10T17:14:42.256Z,39.43
2018-11-10T17:17:09.292Z,38.70
2018-11-10T17:19:36.343Z,39.20
2018-11-10T17:22:04.202Z,41.37
2018-11-10T17:24:30.964Z,41.33
2018-11-10T17:26:58.035Z,41.27
2018-11-10T17:29:25.431Z,41.73
2018-11-10T17:31:52.487Z,41.27
2018-11-10T17:34:19.612Z,41.83
2018-11-10T17:36:46.976Z,43.67
2018-11-10T17:39:14.137Z,43.50
2018-11-10T17:41:41.063Z,42.50
2018-11-10T17:44:08.428Z,42.60
2018-11-10T17:46:35.472Z,43.53
2018-11-10T17:49:02.518Z,44.03
2018-11-10T17:51:29.949Z,45.23
2018-11-10T17:53:57.083Z,43.43
2018-11-10T17:56:24.149Z,43.87
2018-11-10T17:58:51.636Z,46.60
2018-11-10T18:01:18.830Z,43.97
2018-11-10T18:03:45.888Z,43.40
2018-11-10T18:06:13.141Z,44.03
2018-11-10T18:08:40.238Z,44.63
2018-11-10T18:11:07.436Z,43.20
2018-11-10T18:13:34.679Z,44.20
2018-11-10T18:16:01.757Z,43.80
2018-11-10T18:18:28.820Z,47.80
2018-11-10T18:20:56.195Z,46.27
2018-11-10T18:23:23.243Z,42.77
2018-11-10T18:25:50.275Z,41.23
2018-11-10T18:28:17.338Z,39.53
2018-11-10T18:30:44.377Z,42.40
2018-11-10T18:33:11.440Z,42.50
2018-11-10T18:35:39.008Z,42.43
2018-11-10T18:38:06.195Z,42.77
2018-11-10T18:40:46.415Z,40.17
2018-11-10T18:43:13.509Z,41.07
2018-11-10T18:45:40.613Z,41.37
2018-11-10T18:48:08.489Z,42.07
2018-11-10T18:50:35.601Z,41.90
2018-11-10T18:53:02.663Z,45.10
2018-11-10T18:55:29.761Z,44.50
2018-11-10T18:57:56.817Z,47.67
2018-11-10T19:00:23.876Z,46.67
2018-11-10T19:02:51.211Z,46.07
2018-11-10T19:05:18.280Z,45.07
2018-11-10T19:07:45.421Z,45.50
2018-11-10T19:10:14.262Z,46.73
2018-11-10T19:12:41.755Z,45.40
2018-11-10T19:15:09.744Z,45.53
2018-11-10T19:17:37.139Z,45.50
2018-11-10T19:20:04.519Z,46.07
2018-11-10T19:22:31.592Z,44.83
2018-11-10T19:24:58.734Z,43.93
2018-11-10T19:27:25.812Z,44.53
2018-11-10T19:29:52.854Z,45.27
2018-11-10T19:32:20.028Z,45.10
2018-11-10T19:34:47.047Z,44.80
2018-11-10T19:37:14.071Z,43.90
2018-11-10T19:39:41.199Z,44.53
2018-11-10T19:42:08.229Z,45.30
2018-11-10T19:44:35.430Z,44.67
2018-11-10T19:47:03.622Z,44.77
2018-11-10T19:49:30.656Z,47.23
2018-11-10T19:51:57.973Z,47.37
2018-11-10T19:54:24.784Z,44.67
2018-11-10T19:56:51.852Z,44.77
2018-11-10T19:59:18.975Z,44.77
2018-11-10T20:01:46.034Z,45.03
2018-11-10T20:04:13.376Z,43.70
2018-11-10T20:06:40.479Z,44.03
2018-11-10T20:09:07.909Z,46.00
2018-11-10T20:11:34.979Z,45.80
2018-11-10T20:14:02.085Z,46.40
2018-11-10T20:16:29.156Z,46.13
2018-11-10T20:18:56.179Z,46.43
2018-11-10T20:21:23.343Z,47.63
2018-11-10T20:23:50.492Z,47.50
2018-11-10T20:26:17.539Z,47.70
2018-11-10T20:28:44.583Z,44.63
2018-11-10T20:31:11.632Z,45.40
2018-11-10T20:33:38.671Z,46.20
2018-11-10T20:36:05.720Z,47.67
2018-11-10T20:38:32.800Z,46.43
2018-11-10T20:40:59.824Z,46.63
2018-11-10T20:43:26.884Z,47.50
2018-11-10T20:45:54.343Z,48.40
2018-11-10T20:48:21.404Z,48.40
2018-11-10T20:50:48.572Z,45.70
2018-11-10T20:53:15.668Z,48.60
2018-11-10T20:55:42.712Z,46.50
2018-11-10T20:58:09.784Z,49.43
2018-11-10T21:00:37.192Z,48.33
2018-11-10T21:03:04.219Z,47.73
2018-11-10T21:05:31.309Z,49.70
2018-11-10T21:07:58.693Z,47.13
2018-11-10T21:10:25.742Z,48.03
2018-11-10T21:12:52.858Z,49.30
2018-11-10T21:15:20.308Z,51.20
2018-11-10T21:17:47.729Z,50.40
2018-11-10T21:20:14.822Z,46.00
2018-11-10T21:22:42.297Z,47.67
2018-11-10T21:25:10.808Z,49.00
2018-11-10T21:27:38.165Z,51.93
2018-11-10T21:30:06.255Z,51.20
2018-11-10T21:32:33.208Z,50.23
2018-11-10T21:35:00.251Z,52.87
2018-11-10T21:37:27.349Z,51.77
2018-11-10T21:39:54.387Z,48.97
2018-11-10T21:42:21.527Z,50.23
2018-11-10T21:44:48.699Z,51.30
2018-11-10T21:47:15.732Z,49.03
2018-11-10T21:49:42.808Z,49.93
2018-11-10T21:52:10.168Z,50.37
2018-11-10T21:54:37.223Z,48.60
2018-11-10T21:57:04.604Z,52.33
2018-11-10T21:59:31.651Z,50.90
2018-11-10T22:01:58.703Z,46.37
2018-11-10T22:04:25.740Z,48.70
2018-11-10T22:06:53.161Z,47.13
2018-11-10T22:09:20.500Z,47.30
2018-11-10T22:11:47.388Z,48.53
2018-11-10T22:14:14.698Z,47.73
2018-11-10T22:16:41.751Z,47.13
2018-11-10T22:19:08.822Z,45.97
2018-11-10T22:21:36.008Z,47.80
2018-11-10T22:24:03.141Z,47.63
2018-11-10T22:26:30.196Z,46.67
2018-11-10T22:28:57.835Z,48.70
2018-11-10T22:31:26.500Z,49.17
2018-11-10T22:33:53.807Z,48.30
2018-11-10T22:36:21.152Z,47.70
2018-11-10T22:38:48.251Z,46.97
2018-11-10T22:41:15.304Z,50.77
2018-11-10T22:43:42.713Z,49.40
2018-11-10T22:46:09.879Z,48.30
2018-11-10T22:48:37.107Z,49.47
2018-11-10T22:51:04.458Z,49.30
2018-11-10T22:53:31.524Z,48.20
2018-11-10T22:55:58.600Z,48.00
2018-11-10T22:58:25.920Z,48.67
2018-11-10T23:00:58.912Z,48.80
2018-11-10T23:03:27.050Z,46.93
2018-11-10T23:05:54.118Z,51.23
2018-11-10T23:08:21.179Z,49.40
2018-11-10T23:10:48.237Z,51.60
2018-11-10T23:13:15.316Z,50.53
2018-11-10T23:15:42.376Z,50.40
2018-11-10T23:18:09.737Z,51.23
2018-11-10T23:20:36.764Z,49.60
2018-11-10T23:23:04.363Z,52.80
2018-11-10T23:25:31.418Z,49.10
2018-11-10T23:27:58.479Z,51.00
2018-11-10T23:30:25.513Z,51.13
2018-11-10T23:32:52.624Z,50.87
2018-11-10T23:35:19.681Z,48.37
2018-11-10T23:37:46.804Z,50.10
2018-11-10T23:40:15.040Z,52.73
2018-11-10T23:42:42.379Z,51.70
2018-11-10T23:45:09.840Z,52.27
2018-11-10T23:47:37.588Z,52.00
2018-11-10T23:50:05.297Z,50.97
2018-11-10T23:52:32.356Z,50.93
2018-11-10T23:54:59.413Z,53.47
2018-11-10T23:57:26.545Z,53.17
2018-11-10T23:59:53.580Z,50.50
